Airport View

Enter AWOS ICAO identifier for current METAR.

ex. KFNL

K3AU 261235Z AUTO 13006KT 10SM CLR 21/17 A3005 RMK AO2

26 Jun 2019 12:42

Frequency: 124.175

Phone: 316-733-6696

Other Area AWOS: K1K1 - KBEC - KAAO - KIAB

TAF KIAB 261000Z 2610/2716 18006KT 9999 FEW200 QNH2998INS BECMG 2617/2618 18010G20KT 9999 FEW320 QNH3001INS BECMG 2701/2702 18012KT 9999 SKC QNH3001INS TX31/2620Z TN20/2612Z